sensor_id;sensor_type;location;lat;lon;timestamp;pressure;altitude;pressure_sealevel;temperature;humidity
78845;BME280;68195;50.854;2.860;2023-05-10T00:02:16;100894.03;;;12.47;92.82
78845;BME280;68195;50.854;2.860;2023-05-10T00:04:41;100908.47;;;12.54;92.70
78845;BME280;68195;50.854;2.860;2023-05-10T00:07:06;100876.97;;;12.40;92.47
78845;BME280;68195;50.854;2.860;2023-05-10T00:09:31;100907.53;;;12.55;92.52
78845;BME280;68195;50.854;2.860;2023-05-10T00:11:57;100895.88;;;12.45;92.53
78845;BME280;68195;50.854;2.860;2023-05-10T00:14:23;100870.69;;;12.26;92.63
78845;BME280;68195;50.854;2.860;2023-05-10T00:16:48;100906.16;;;12.48;92.33
78845;BME280;68195;50.854;2.860;2023-05-10T00:19:14;100891.81;;;12.39;92.27
78845;BME280;68195;50.854;2.860;2023-05-10T00:21:39;100897.56;;;12.46;92.19
78845;BME280;68195;50.854;2.860;2023-05-10T00:24:05;100887.59;;;12.37;92.31
78845;BME280;68195;50.854;2.860;2023-05-10T00:26:30;100901.13;;;12.45;92.74
78845;BME280;68195;50.854;2.860;2023-05-10T00:28:58;100877.44;;;12.30;92.46
78845;BME280;68195;50.854;2.860;2023-05-10T00:31:23;100872.38;;;12.27;92.65
78845;BME280;68195;50.854;2.860;2023-05-10T00:33:51;100904.81;;;12.41;92.55
78845;BME280;68195;50.854;2.860;2023-05-10T00:36:16;100879.63;;;12.22;92.36
78845;BME280;68195;50.854;2.860;2023-05-10T00:38:42;100904.00;;;12.40;92.72
78845;BME280;68195;50.854;2.860;2023-05-10T00:41:11;100904.00;;;12.40;92.90
78845;BME280;68195;50.854;2.860;2023-05-10T00:43:37;100884.38;;;12.31;93.03
78845;BME280;68195;50.854;2.860;2023-05-10T00:46:03;100894.69;;;12.35;93.43
78845;BME280;68195;50.854;2.860;2023-05-10T00:48:29;100848.66;;;12.15;93.28
78845;BME280;68195;50.854;2.860;2023-05-10T00:50:54;100906.28;;;12.46;92.81
78845;BME280;68195;50.854;2.860;2023-05-10T00:53:21;100880.16;;;12.29;93.19
78845;BME280;68195;50.854;2.860;2023-05-10T00:55:46;100908.97;;;12.45;93.57
78845;BME280;68195;50.854;2.860;2023-05-10T00:58:12;100890.53;;;12.30;94.34
78845;BME280;68195;50.854;2.860;2023-05-10T01:00:37;100910.75;;;12.44;94.38
78845;BME280;68195;50.854;2.860;2023-05-10T01:03:14;100911.09;;;12.38;93.91
78845;BME280;68195;50.854;2.860;2023-05-10T01:05:44;100881.34;;;12.23;93.99
78845;BME280;68195;50.854;2.860;2023-05-10T01:08:12;100888.03;;;12.29;93.69
78845;BME280;68195;50.854;2.860;2023-05-10T01:10:41;100870.09;;;12.21;93.88
78845;BME280;68195;50.854;2.860;2023-05-10T01:13:08;100859.19;;;12.13;93.02
78845;BME280;68195;50.854;2.860;2023-05-10T01:15:33;100916.00;;;12.44;93.59
78845;BME280;68195;50.854;2.860;2023-05-10T01:18:02;100893.16;;;12.30;93.41
78845;BME280;68195;50.854;2.860;2023-05-10T01:20:33;100918.88;;;12.40;93.66
78845;BME280;68195;50.854;2.860;2023-05-10T01:23:16;100907.00;;;12.32;93.69
78845;BME280;68195;50.854;2.860;2023-05-10T01:28:56;100911.16;;;12.37;92.95
78845;BME280;68195;50.854;2.860;2023-05-10T01:34:34;100886.66;;;12.22;93.15
78845;BME280;68195;50.854;2.860;2023-05-10T01:37:13;100894.63;;;12.20;93.58
78845;BME280;68195;50.854;2.860;2023-05-10T01:39:47;100923.56;;;12.33;93.46
78845;BME280;68195;50.854;2.860;2023-05-10T01:42:19;100930.19;;;12.40;93.02
78845;BME280;68195;50.854;2.860;2023-05-10T01:47:20;100908.38;;;12.24;92.93
78845;BME280;68195;50.854;2.860;2023-05-10T01:49:53;100904.06;;;12.23;93.01
78845;BME280;68195;50.854;2.860;2023-05-10T01:52:33;100912.59;;;12.26;92.80
78845;BME280;68195;50.854;2.860;2023-05-10T01:55:08;100930.59;;;12.32;93.01
78845;BME280;68195;50.854;2.860;2023-05-10T01:57:36;100927.13;;;12.32;93.11
78845;BME280;68195;50.854;2.860;2023-05-10T02:00:06;100933.53;;;12.26;92.97
78845;BME280;68195;50.854;2.860;2023-05-10T02:02:37;100953.50;;;12.29;93.32
78845;BME280;68195;50.854;2.860;2023-05-10T02:05:04;100946.81;;;12.23;93.22
78845;BME280;68195;50.854;2.860;2023-05-10T02:07:31;100924.00;;;12.09;93.02
78845;BME280;68195;50.854;2.860;2023-05-10T02:10:00;100952.94;;;12.22;93.30
78845;BME280;68195;50.854;2.860;2023-05-10T02:12:28;100954.59;;;12.25;92.55
78845;BME280;68195;50.854;2.860;2023-05-10T02:14:54;100926.31;;;11.98;92.84
78845;BME280;68195;50.854;2.860;2023-05-10T02:17:20;100963.78;;;12.16;93.12
78845;BME280;68195;50.854;2.860;2023-05-10T02:19:47;100930.78;;;11.96;92.68
78845;BME280;68195;50.854;2.860;2023-05-10T02:22:13;100947.00;;;12.03;93.01
78845;BME280;68195;50.854;2.860;2023-05-10T02:24:40;100982.88;;;12.18;92.84
78845;BME280;68195;50.854;2.860;2023-05-10T02:27:06;100972.03;;;12.08;92.59
78845;BME280;68195;50.854;2.860;2023-05-10T02:29:34;100977.78;;;12.15;92.90
78845;BME280;68195;50.854;2.860;2023-05-10T02:32:01;100959.19;;;12.04;92.72
78845;BME280;68195;50.854;2.860;2023-05-10T02:34:28;100939.88;;;11.89;92.72
78845;BME280;68195;50.854;2.860;2023-05-10T02:36:55;100977.31;;;12.07;92.83
78845;BME280;68195;50.854;2.860;2023-05-10T02:39:23;100958.13;;;11.90;92.72
78845;BME280;68195;50.854;2.860;2023-05-10T02:41:50;100975.66;;;12.06;93.22
78845;BME280;68195;50.854;2.860;2023-05-10T02:44:20;100979.94;;;12.07;92.79
78845;BME280;68195;50.854;2.860;2023-05-10T02:46:50;100971.66;;;11.99;92.78
78845;BME280;68195;50.854;2.860;2023-05-10T02:49:15;100986.97;;;12.06;93.48
78845;BME280;68195;50.854;2.860;2023-05-10T02:51:44;100987.13;;;12.03;92.98
78845;BME280;68195;50.854;2.860;2023-05-10T02:54:18;100963.44;;;11.89;93.04
78845;BME280;68195;50.854;2.860;2023-05-10T02:57:03;100981.03;;;12.03;93.02
78845;BME280;68195;50.854;2.860;2023-05-10T02:59:32;100948.19;;;11.80;93.05
78845;BME280;68195;50.854;2.860;2023-05-10T03:01:58;100988.75;;;12.06;92.99
78845;BME280;68195;50.854;2.860;2023-05-10T03:04:25;100953.31;;;11.81;92.82
78845;BME280;68195;50.854;2.860;2023-05-10T03:06:50;100984.59;;;12.02;92.86
78845;BME280;68195;50.854;2.860;2023-05-10T03:09:18;100963.56;;;11.86;93.66
78845;BME280;68195;50.854;2.860;2023-05-10T03:14:34;100996.97;;;11.98;93.71
78845;BME280;68195;50.854;2.860;2023-05-10T03:17:23;100991.16;;;11.93;93.83
78845;BME280;68195;50.854;2.860;2023-05-10T03:19:58;101003.09;;;11.99;93.82
78845;BME280;68195;50.854;2.860;2023-05-10T03:22:44;100992.63;;;11.99;93.40
78845;BME280;68195;50.854;2.860;2023-05-10T03:25:13;100969.19;;;11.78;93.79
78845;BME280;68195;50.854;2.860;2023-05-10T03:27:41;101001.38;;;11.98;93.59
78845;BME280;68195;50.854;2.860;2023-05-10T03:30:10;100998.94;;;11.95;93.70
78845;BME280;68195;50.854;2.860;2023-05-10T03:32:39;100996.97;;;11.98;93.63
78845;BME280;68195;50.854;2.860;2023-05-10T03:37:34;100971.97;;;11.75;94.28
78845;BME280;68195;50.854;2.860;2023-05-10T03:40:02;100982.97;;;11.82;94.09
78845;BME280;68195;50.854;2.860;2023-05-10T03:42:28;101009.72;;;11.88;94.47
78845;BME280;68195;50.854;2.860;2023-05-10T03:44:56;100964.44;;;11.69;94.61
78845;BME280;68195;50.854;2.860;2023-05-10T03:47:22;100984.88;;;11.78;94.37
78845;BME280;68195;50.854;2.860;2023-05-10T03:49:47;100994.88;;;11.87;94.22
78845;BME280;68195;50.854;2.860;2023-05-10T03:52:15;100991.50;;;11.85;94.50
78845;BME280;68195;50.854;2.860;2023-05-10T03:54:40;100994.78;;;11.90;93.76
78845;BME280;68195;50.854;2.860;2023-05-10T03:57:05;100984.50;;;11.86;93.17
78845;BME280;68195;50.854;2.860;2023-05-10T03:59:31;101004.06;;;11.96;93.18
78845;BME280;68195;50.854;2.860;2023-05-10T04:01:56;100985.91;;;11.93;93.16
78845;BME280;68195;50.854;2.860;2023-05-10T04:04:22;101000.69;;;11.94;93.53
78845;BME280;68195;50.854;2.860;2023-05-10T04:06:48;100970.03;;;11.79;93.95
78845;BME280;68195;50.854;2.860;2023-05-10T04:09:13;100986.38;;;11.84;93.97
78845;BME280;68195;50.854;2.860;2023-05-10T04:11:41;100996.38;;;11.93;93.90
78845;BME280;68195;50.854;2.860;2023-05-10T04:14:09;100977.75;;;11.82;93.46
78845;BME280;68195;50.854;2.860;2023-05-10T04:16:37;100987.03;;;11.87;93.95
78845;BME280;68195;50.854;2.860;2023-05-10T04:19:02;100997.47;;;11.89;93.80
78845;BME280;68195;50.854;2.860;2023-05-10T04:21:28;100981.03;;;11.85;93.72
78845;BME280;68195;50.854;2.860;2023-05-10T04:23:54;100989.53;;;11.90;93.39
78845;BME280;68195;50.854;2.860;2023-05-10T04:26:19;100985.97;;;11.92;93.87
78845;BME280;68195;50.854;2.860;2023-05-10T04:28:45;100948.75;;;11.69;93.27
78845;BME280;68195;50.854;2.860;2023-05-10T04:31:11;100985.13;;;11.91;94.15
78845;BME280;68195;50.854;2.860;2023-05-10T04:33:38;100979.34;;;11.84;93.58
78845;BME280;68195;50.854;2.860;2023-05-10T04:36:04;100982.59;;;11.89;93.18
78845;BME280;68195;50.854;2.860;2023-05-10T04:38:30;100994.59;;;11.94;94.09
78845;BME280;68195;50.854;2.860;2023-05-10T04:41:07;100984.31;;;11.90;93.63
78845;BME280;68195;50.854;2.860;2023-05-10T04:43:32;100984.38;;;11.89;92.66
78845;BME280;68195;50.854;2.860;2023-05-10T04:45:58;100999.69;;;11.97;93.31
78845;BME280;68195;50.854;2.860;2023-05-10T04:48:26;100997.22;;;11.94;93.39
78845;BME280;68195;50.854;2.860;2023-05-10T04:50:53;100987.69;;;11.93;93.14
78845;BME280;68195;50.854;2.860;2023-05-10T04:53:21;100996.13;;;11.98;93.21
78845;BME280;68195;50.854;2.860;2023-05-10T04:55:47;101002.06;;;12.01;92.98
78845;BME280;68195;50.854;2.860;2023-05-10T04:58:13;101000.78;;;11.93;92.88
78845;BME280;68195;50.854;2.860;2023-05-10T05:00:38;100991.97;;;11.94;92.92
78845;BME280;68195;50.854;2.860;2023-05-10T05:03:04;101016.78;;;12.04;93.48
78845;BME280;68195;50.854;2.860;2023-05-10T05:05:32;101002.31;;;11.97;92.71
78845;BME280;68195;50.854;2.860;2023-05-10T05:07:58;101004.75;;;12.00;93.10
78845;BME280;68195;50.854;2.860;2023-05-10T05:10:23;101008.16;;;12.02;93.44
78845;BME280;68195;50.854;2.860;2023-05-10T05:12:48;101012.53;;;12.01;93.56
78845;BME280;68195;50.854;2.860;2023-05-10T05:15:14;100993.06;;;11.89;92.64
78845;BME280;68195;50.854;2.860;2023-05-10T05:17:45;101016.00;;;12.02;92.68
78845;BME280;68195;50.854;2.860;2023-05-10T05:20:13;101017.84;;;12.00;93.13
78845;BME280;68195;50.854;2.860;2023-05-10T05:22:40;101017.25;;;11.95;93.53
78845;BME280;68195;50.854;2.860;2023-05-10T05:25:06;101021.22;;;12.02;92.99
78845;BME280;68195;50.854;2.860;2023-05-10T05:27:31;101035.88;;;12.06;93.43
78845;BME280;68195;50.854;2.860;2023-05-10T05:29:57;101035.03;;;12.05;93.30
78845;BME280;68195;50.854;2.860;2023-05-10T05:32:23;101034.09;;;12.06;93.24
78845;BME280;68195;50.854;2.860;2023-05-10T05:34:49;101002.91;;;11.84;92.70
78845;BME280;68195;50.854;2.860;2023-05-10T05:37:16;101043.53;;;12.09;92.81
78845;BME280;68195;50.854;2.860;2023-05-10T05:39:44;101039.06;;;12.11;93.01
78845;BME280;68195;50.854;2.860;2023-05-10T05:42:10;101029.09;;;12.02;92.63
78845;BME280;68195;50.854;2.860;2023-05-10T05:44:37;101011.25;;;11.93;92.84
78845;BME280;68195;50.854;2.860;2023-05-10T05:47:03;101044.16;;;12.14;93.17
78845;BME280;68195;50.854;2.860;2023-05-10T05:49:29;101050.25;;;12.15;93.17
78845;BME280;68195;50.854;2.860;2023-05-10T05:51:57;101036.00;;;12.03;92.55
78845;BME280;68195;50.854;2.860;2023-05-10T05:54:26;101046.84;;;12.13;92.25
78845;BME280;68195;50.854;2.860;2023-05-10T05:56:53;101052.03;;;12.14;92.94
78845;BME280;68195;50.854;2.860;2023-05-10T05:59:18;101024.78;;;12.01;92.67
78845;BME280;68195;50.854;2.860;2023-05-10T06:01:44;101052.03;;;12.14;93.31
78845;BME280;68195;50.854;2.860;2023-05-10T06:04:09;101036.78;;;12.05;93.13
78845;BME280;68195;50.854;2.860;2023-05-10T06:06:37;101041.09;;;12.06;92.77
78845;BME280;68195;50.854;2.860;2023-05-10T06:09:02;101050.38;;;12.11;93.34
78845;BME280;68195;50.854;2.860;2023-05-10T06:11:28;101013.19;;;11.87;93.09
78845;BME280;68195;50.854;2.860;2023-05-10T06:13:53;101044.47;;;12.08;92.91
78845;BME280;68195;50.854;2.860;2023-05-10T06:16:21;101052.94;;;12.13;92.97
78845;BME280;68195;50.854;2.860;2023-05-10T06:18:46;101059.00;;;12.14;92.59
78845;BME280;68195;50.854;2.860;2023-05-10T06:21:11;101066.88;;;12.14;92.92
78845;BME280;68195;50.854;2.860;2023-05-10T06:23:39;101060.72;;;12.15;92.85
78845;BME280;68195;50.854;2.860;2023-05-10T06:26:05;101062.19;;;12.20;92.51
78845;BME280;68195;50.854;2.860;2023-05-10T06:28:30;101064.63;;;12.23;92.91
78845;BME280;68195;50.854;2.860;2023-05-10T06:30:59;101067.25;;;12.23;92.49
78845;BME280;68195;50.854;2.860;2023-05-10T06:33:25;101072.78;;;12.35;93.14
78845;BME280;68195;50.854;2.860;2023-05-10T06:35:50;101078.28;;;12.46;92.85
78845;BME280;68195;50.854;2.860;2023-05-10T06:38:18;101081.53;;;12.51;92.69
78845;BME280;68195;50.854;2.860;2023-05-10T06:40:48;101081.38;;;12.54;92.81
78845;BME280;68195;50.854;2.860;2023-05-10T06:43:14;101078.41;;;12.60;92.08
78845;BME280;68195;50.854;2.860;2023-05-10T06:45:39;101079.97;;;12.64;91.68
78845;BME280;68195;50.854;2.860;2023-05-10T06:48:06;101077.91;;;12.69;91.73
78845;BME280;68195;50.854;2.860;2023-05-10T06:50:31;101088.91;;;12.76;92.18
78845;BME280;68195;50.854;2.860;2023-05-10T06:52:57;101054.53;;;12.66;91.98
78845;BME280;68195;50.854;2.860;2023-05-10T06:55:22;101090.97;;;12.87;91.48
78845;BME280;68195;50.854;2.860;2023-05-10T06:57:48;101085.72;;;12.87;91.38
78845;BME280;68195;50.854;2.860;2023-05-10T07:00:14;101098.50;;;12.93;90.73
78845;BME280;68195;50.854;2.860;2023-05-10T07:02:41;101085.06;;;12.83;90.55
78845;BME280;68195;50.854;2.860;2023-05-10T07:05:09;101105.78;;;12.88;89.63
78845;BME280;68195;50.854;2.860;2023-05-10T07:07:35;101098.00;;;12.86;90.14
78845;BME280;68195;50.854;2.860;2023-05-10T07:10:00;101100.47;;;12.89;90.13
78845;BME280;68195;50.854;2.860;2023-05-10T07:12:26;101096.81;;;12.92;90.54
78845;BME280;68195;50.854;2.860;2023-05-10T07:14:51;101065.84;;;12.83;90.25
78845;BME280;68195;50.854;2.860;2023-05-10T07:17:16;101099.97;;;13.14;90.17
78845;BME280;68195;50.854;2.860;2023-05-10T07:19:44;101060.56;;;13.00;89.62
78845;BME280;68195;50.854;2.860;2023-05-10T07:22:12;101107.13;;;13.28;88.69
78845;BME280;68195;50.854;2.860;2023-05-10T07:24:37;101102.53;;;13.32;88.66
78845;BME280;68195;50.854;2.860;2023-05-10T07:27:03;101074.50;;;13.17;87.05
78845;BME280;68195;50.854;2.860;2023-05-10T07:29:31;101086.59;;;13.19;86.13
78845;BME280;68195;50.854;2.860;2023-05-10T07:31:58;101107.41;;;13.22;87.07
78845;BME280;68195;50.854;2.860;2023-05-10T07:34:26;101101.94;;;13.11;87.32
78845;BME280;68195;50.854;2.860;2023-05-10T07:36:51;101128.03;;;13.12;86.86
78845;BME280;68195;50.854;2.860;2023-05-10T07:39:21;101088.28;;;12.88;88.25
78845;BME280;68195;50.854;2.860;2023-05-10T07:41:49;101082.13;;;12.89;88.44
78845;BME280;68195;50.854;2.860;2023-05-10T07:44:19;101100.41;;;13.07;88.92
78845;BME280;68195;50.854;2.860;2023-05-10T07:46:48;101110.63;;;13.11;88.58
78845;BME280;68195;50.854;2.860;2023-05-10T07:49:14;101121.38;;;13.23;88.38
78845;BME280;68195;50.854;2.860;2023-05-10T07:51:39;101120.28;;;13.27;88.44
78845;BME280;68195;50.854;2.860;2023-05-10T07:54:07;101106.47;;;13.23;88.69
78845;BME280;68195;50.854;2.860;2023-05-10T07:56:32;101117.44;;;13.31;88.54
78845;BME280;68195;50.854;2.860;2023-05-10T07:58:59;101112.41;;;13.27;88.09
78845;BME280;68195;50.854;2.860;2023-05-10T08:01:25;101081.88;;;13.10;88.03
78845;BME280;68195;50.854;2.860;2023-05-10T08:03:51;101106.22;;;13.28;88.56
78845;BME280;68195;50.854;2.860;2023-05-10T08:06:19;101109.78;;;13.43;88.80
78845;BME280;68195;50.854;2.860;2023-05-10T08:08:47;101098.13;;;13.48;88.47
78845;BME280;68195;50.854;2.860;2023-05-10T08:11:15;101084.22;;;13.62;88.01
78845;BME280;68195;50.854;2.860;2023-05-10T08:13:41;101108.53;;;13.96;88.16
78845;BME280;68195;50.854;2.860;2023-05-10T08:16:06;101111.72;;;14.01;86.54
78845;BME280;68195;50.854;2.860;2023-05-10T08:18:32;101073.69;;;13.78;86.09
78845;BME280;68195;50.854;2.860;2023-05-10T08:20:57;101120.34;;;14.03;85.59
78845;BME280;68195;50.854;2.860;2023-05-10T08:23:22;101113.78;;;13.96;85.93
78845;BME280;68195;50.854;2.860;2023-05-10T08:25:48;101128.16;;;14.05;85.51
78845;BME280;68195;50.854;2.860;2023-05-10T08:28:16;101105.75;;;13.83;84.38
78845;BME280;68195;50.854;2.860;2023-05-10T08:30:41;101137.69;;;13.91;84.92
78845;BME280;68195;50.854;2.860;2023-05-10T08:33:06;101127.53;;;13.85;85.76
78845;BME280;68195;50.854;2.860;2023-05-10T08:35:31;101138.31;;;13.95;85.63
78845;BME280;68195;50.854;2.860;2023-05-10T08:38:03;101136.66;;;13.94;86.12
78845;BME280;68195;50.854;2.860;2023-05-10T08:40:28;101110.59;;;13.75;85.68
78845;BME280;68195;50.854;2.860;2023-05-10T08:42:55;101138.44;;;13.93;86.21
78845;BME280;68195;50.854;2.860;2023-05-10T08:45:24;101143.69;;;13.93;86.03
78845;BME280;68195;50.854;2.860;2023-05-10T08:47:54;101113.06;;;13.62;86.08
78845;BME280;68195;50.854;2.860;2023-05-10T08:50:29;101142.09;;;13.75;86.41
78845;BME280;68195;50.854;2.860;2023-05-10T08:52:57;101159.44;;;13.78;86.70
78845;BME280;68195;50.854;2.860;2023-05-10T08:55:24;101151.56;;;13.78;86.66
78845;BME280;68195;50.854;2.860;2023-05-10T08:57:49;101162.06;;;13.78;86.96
78845;BME280;68195;50.854;2.860;2023-05-10T09:00:16;101112.91;;;13.49;86.94
78845;BME280;68195;50.854;2.860;2023-05-10T09:02:42;101139.75;;;13.70;87.24
78845;BME280;68195;50.854;2.860;2023-05-10T09:05:08;101149.63;;;13.81;87.56
78845;BME280;68195;50.854;2.860;2023-05-10T09:07:37;101158.19;;;13.85;87.52
78845;BME280;68195;50.854;2.860;2023-05-10T09:10:04;101137.03;;;13.72;87.63
78845;BME280;68195;50.854;2.860;2023-05-10T09:12:31;101146.81;;;13.84;87.64
78845;BME280;68195;50.854;2.860;2023-05-10T09:14:59;101174.09;;;13.98;87.54
78845;BME280;68195;50.854;2.860;2023-05-10T09:17:25;101172.72;;;13.90;87.02
78845;BME280;68195;50.854;2.860;2023-05-10T09:19:56;101169.50;;;14.01;87.42
78845;BME280;68195;50.854;2.860;2023-05-10T09:22:22;101135.41;;;13.85;87.28
78845;BME280;68195;50.854;2.860;2023-05-10T09:24:50;101177.50;;;14.14;86.81
78845;BME280;68195;50.854;2.860;2023-05-10T09:27:32;101175.81;;;14.13;86.58
78845;BME280;68195;50.854;2.860;2023-05-10T09:30:01;101176.41;;;14.18;86.24
78845;BME280;68195;50.854;2.860;2023-05-10T09:35:08;101160.69;;;14.02;85.90
78845;BME280;68195;50.854;2.860;2023-05-10T09:37:36;101172.78;;;14.05;85.90
78845;BME280;68195;50.854;2.860;2023-05-10T09:40:07;101193.19;;;14.15;85.29
78845;BME280;68195;50.854;2.860;2023-05-10T09:42:34;101184.81;;;14.09;84.74
78845;BME280;68195;50.854;2.860;2023-05-10T09:45:06;101192.69;;;14.09;84.38
78845;BME280;68195;50.854;2.860;2023-05-10T09:47:35;101200.50;;;14.10;85.33
78845;BME280;68195;50.854;2.860;2023-05-10T09:50:03;101180.75;;;14.03;85.87
78845;BME280;68195;50.854;2.860;2023-05-10T09:55:18;101207.91;;;14.18;86.30
78845;BME280;68195;50.854;2.860;2023-05-10T09:57:45;101180.19;;;13.98;86.80
78845;BME280;68195;50.854;2.860;2023-05-10T10:00:17;101192.50;;;14.12;84.69
78845;BME280;68195;50.854;2.860;2023-05-10T10:02:55;101182.81;;;14.28;85.51
78845;BME280;68195;50.854;2.860;2023-05-10T10:05:31;101200.59;;;14.53;85.76
78845;BME280;68195;50.854;2.860;2023-05-10T10:08:00;101196.78;;;14.59;83.12
78845;BME280;68195;50.854;2.860;2023-05-10T10:10:28;101193.81;;;14.65;82.29
78845;BME280;68195;50.854;2.860;2023-05-10T10:12:54;101181.34;;;14.69;82.62
78845;BME280;68195;50.854;2.860;2023-05-10T10:15:20;101193.19;;;14.90;82.93
78845;BME280;68195;50.854;2.860;2023-05-10T10:17:46;101178.41;;;14.88;81.35
78845;BME280;68195;50.854;2.860;2023-05-10T10:20:12;101167.06;;;14.87;81.04
78845;BME280;68195;50.854;2.860;2023-05-10T10:22:37;101207.91;;;15.22;81.92
78845;BME280;68195;50.854;2.860;2023-05-10T10:25:04;101201.97;;;15.32;80.04
78845;BME280;68195;50.854;2.860;2023-05-10T10:30:28;101204.06;;;15.27;78.46
78845;BME280;68195;50.854;2.860;2023-05-10T10:36:00;101166.31;;;14.85;79.83
78845;BME280;68195;50.854;2.860;2023-05-10T10:38:59;101191.56;;;15.02;79.20
78845;BME280;68195;50.854;2.860;2023-05-10T10:41:37;101182.44;;;14.79;78.49
78845;BME280;68195;50.854;2.860;2023-05-10T10:49:50;101209.81;;;14.91;80.44
78845;BME280;68195;50.854;2.860;2023-05-10T10:55:02;101206.31;;;15.05;79.47
78845;BME280;68195;50.854;2.860;2023-05-10T10:57:28;101183.88;;;14.99;76.90
78845;BME280;68195;50.854;2.860;2023-05-10T11:03:14;101173.91;;;15.04;74.28
78845;BME280;68195;50.854;2.860;2023-05-10T11:05:45;101200.78;;;15.24;75.34
78845;BME280;68195;50.854;2.860;2023-05-10T11:10:38;101213.72;;;15.41;74.01
78845;BME280;68195;50.854;2.860;2023-05-10T11:13:05;101205.06;;;15.39;72.96
78845;BME280;68195;50.854;2.860;2023-05-10T11:15:33;101178.31;;;15.18;73.16
78845;BME280;68195;50.854;2.860;2023-05-10T11:17:59;101209.66;;;15.50;72.03
78845;BME280;68195;50.854;2.860;2023-05-10T11:20:27;101209.53;;;15.66;73.41
78845;BME280;68195;50.854;2.860;2023-05-10T11:23:11;101179.94;;;15.62;70.88
78845;BME280;68195;50.854;2.860;2023-05-10T11:25:42;101208.19;;;15.87;69.51
78845;BME280;68195;50.854;2.860;2023-05-10T11:28:08;101157.97;;;15.49;67.36
78845;BME280;68195;50.854;2.860;2023-05-10T11:30:33;101217.25;;;15.83;65.86
78845;BME280;68195;50.854;2.860;2023-05-10T11:32:58;101173.09;;;15.59;66.49
78845;BME280;68195;50.854;2.860;2023-05-10T11:35:27;101164.13;;;15.62;67.15
78845;BME280;68195;50.854;2.860;2023-05-10T11:37:55;101222.16;;;16.02;63.43
78845;BME280;68195;50.854;2.860;2023-05-10T11:40:23;101172.75;;;15.78;63.55
78845;BME280;68195;50.854;2.860;2023-05-10T11:42:55;101185.44;;;15.86;58.57
78845;BME280;68195;50.854;2.860;2023-05-10T11:45:24;101179.06;;;15.76;62.83
78845;BME280;68195;50.854;2.860;2023-05-10T11:47:51;101194.38;;;15.84;61.03
78845;BME280;68195;50.854;2.860;2023-05-10T11:50:19;101156.41;;;15.59;62.16
78845;BME280;68195;50.854;2.860;2023-05-10T11:52:50;101191.53;;;15.87;61.27
78845;BME280;68195;50.854;2.860;2023-05-10T11:55:20;101135.13;;;15.49;65.06
78845;BME280;68195;50.854;2.860;2023-05-10T11:57:49;101217.44;;;16.07;65.13
78845;BME280;68195;50.854;2.860;2023-05-10T12:00:16;101206.03;;;15.94;66.06
78845;BME280;68195;50.854;2.860;2023-05-10T12:02:44;101204.75;;;15.99;65.39
78845;BME280;68195;50.854;2.860;2023-05-10T12:05:12;101186.94;;;15.90;65.49
78845;BME280;68195;50.854;2.860;2023-05-10T12:07:38;101179.78;;;15.92;65.73
78845;BME280;68195;50.854;2.860;2023-05-10T12:10:10;101178.06;;;15.91;59.73
78845;BME280;68195;50.854;2.860;2023-05-10T12:12:37;101219.38;;;16.18;60.13
78845;BME280;68195;50.854;2.860;2023-05-10T12:15:04;101220.22;;;16.18;59.79
78845;BME280;68195;50.854;2.860;2023-05-10T12:17:32;101171.88;;;15.92;59.96
78845;BME280;68195;50.854;2.860;2023-05-10T12:20:18;101202.47;;;16.08;60.60
78845;BME280;68195;50.854;2.860;2023-05-10T12:22:56;101199.31;;;16.15;62.00
78845;BME280;68195;50.854;2.860;2023-05-10T12:25:23;101217.41;;;16.34;60.50
78845;BME280;68195;50.854;2.860;2023-05-10T12:27:54;101212.53;;;16.28;60.06
78845;BME280;68195;50.854;2.860;2023-05-10T12:30:25;101105.97;;;15.52;59.93
78845;BME280;68195;50.854;2.860;2023-05-10T12:32:51;101179.03;;;15.90;60.66
78845;BME280;68195;50.854;2.860;2023-05-10T12:35:19;101226.88;;;16.24;61.45
78845;BME280;68195;50.854;2.860;2023-05-10T12:37:50;101226.44;;;16.30;61.17
78845;BME280;68195;50.854;2.860;2023-05-10T12:40:18;101168.84;;;15.98;60.05
78845;BME280;68195;50.854;2.860;2023-05-10T12:42:43;101158.03;;;15.89;58.38
78845;BME280;68195;50.854;2.860;2023-05-10T12:45:12;101151.72;;;15.91;60.08
78845;BME280;68195;50.854;2.860;2023-05-10T12:47:40;101184.91;;;16.21;60.43
78845;BME280;68195;50.854;2.860;2023-05-10T12:50:08;101197.47;;;16.43;59.79
78845;BME280;68195;50.854;2.860;2023-05-10T12:52:33;101234.25;;;16.72;57.56
78845;BME280;68195;50.854;2.860;2023-05-10T12:55:01;101235.00;;;16.87;59.20
78845;BME280;68195;50.854;2.860;2023-05-10T12:57:30;101166.06;;;16.53;58.99
78845;BME280;68195;50.854;2.860;2023-05-10T12:59:58;101242.50;;;16.93;56.72
78845;BME280;68195;50.854;2.860;2023-05-10T13:02:23;101221.50;;;16.91;59.35
78845;BME280;68195;50.854;2.860;2023-05-10T13:04:49;101230.34;;;17.03;58.23
78845;BME280;68195;50.854;2.860;2023-05-10T13:07:14;101216.09;;;17.06;58.31
78845;BME280;68195;50.854;2.860;2023-05-10T13:09:40;101175.75;;;16.78;54.77
78845;BME280;68195;50.854;2.860;2023-05-10T13:12:05;101247.84;;;17.17;56.75
78845;BME280;68195;50.854;2.860;2023-05-10T13:14:31;101095.63;;;16.16;57.39
78845;BME280;68195;50.854;2.860;2023-05-10T13:16:57;101237.03;;;17.09;56.69
78845;BME280;68195;50.854;2.860;2023-05-10T13:19:22;101245.44;;;17.14;56.40
78845;BME280;68195;50.854;2.860;2023-05-10T13:21:50;101153.09;;;16.50;56.06
78845;BME280;68195;50.854;2.860;2023-05-10T13:24:15;101161.75;;;16.52;56.11
78845;BME280;68195;50.854;2.860;2023-05-10T13:26:42;101251.78;;;16.98;53.84
78845;BME280;68195;50.854;2.860;2023-05-10T13:29:08;101164.25;;;16.40;56.10
78845;BME280;68195;50.854;2.860;2023-05-10T13:31:38;101230.63;;;16.73;56.34
78845;BME280;68195;50.854;2.860;2023-05-10T13:34:05;101236.69;;;16.88;57.88